Midnight Wolf — HO7969 — position and weather

sailwx.info

Track history (hours):
 
Tides and Currents Weather Stations Pressure Air Temp Water Temp Dewpoint Dewpoint Depression Visibility Wind Speed Wind Dir Waves Ship Positions

Midnight Wolf

Last reported at 2015-Feb-27 05:33 UTC. Time now 2015-Feb-27 21:16 UTC.
Position N 18°21' W 064°38'.

Length 51 m; draft 3 m.

Type: Cargo ship. MMSI: 351880000.

Date/timePositionNaut miles runAvg speedWind from/ knotsBaromVisibWave heightAir tempDewpointWater temp
2015-Feb-27 05:33N 18°21' W 064°38'4 3.7
2015-Feb-27 04:33N 18°23' W 064°35'3 0.1
2015-Feb-25 03:05N 18°21' W 064°38'4 2.0
2015-Feb-25 01:06N 18°25' W 064°36'6 9.6
2015-Feb-25 00:30N 18°20' W 064°33'5 0.1
2015-Feb-22 23:21N 18°21' W 064°38'  
2015-Feb-20 10:19N 18°13' W 064°52'17 9.3
2015-Feb-20 08:32N 18°22' W 064°38'3 2.8
2015-Feb-20 07:33N 18°23' W 064°35'5 0.1
2015-Feb-18 05:20N 18°20' W 064°39'6 4.5
2015-Feb-18 04:03N 18°25' W 064°36'6 9.8
2015-Feb-18 03:29N 18°20' W 064°33'  
Track history (hours):
 
Tides and Currents Weather Stations Pressure Air Temp Water Temp Dewpoint Dewpoint Depression Visibility Wind Speed Wind Dir Waves Ship Positions

Midnight Wolf

Last reported at 2015-Feb-27 05:33 UTC. Time now 2015-Feb-27 21:16 UTC.
Position N 18°21' W 064°38'.

Length 51 m; draft 3 m.

Type: Cargo ship. MMSI: 351880000.

Date/timePositionNaut miles runAvg speedWind from/ knotsBaromVisibWave heightAir tempDewpointWater temp
2015-Feb-27 05:33N 18°21' W 064°38'4 3.7
2015-Feb-27 04:33N 18°23' W 064°35'3 0.1
2015-Feb-25 03:05N 18°21' W 064°38'4 2.0
2015-Feb-25 01:06N 18°25' W 064°36'6 9.6
2015-Feb-25 00:30N 18°20' W 064°33'5 0.1
2015-Feb-22 23:21N 18°21' W 064°38'  
2015-Feb-20 10:19N 18°13' W 064°52'17 9.3
2015-Feb-20 08:32N 18°22' W 064°38'3 2.8
2015-Feb-20 07:33N 18°23' W 064°35'5 0.1
2015-Feb-18 05:20N 18°20' W 064°39'6 4.5
2015-Feb-18 04:03N 18°25' W 064°36'6 9.8
2015-Feb-18 03:29N 18°20' W 064°33'  

Dump ship's entire track history